Time;durP1;ratioP1;P1;durP2;ratioP2;P2;SDS_P1;SDS_P2;PMS_P1;PMS_P2;Temp;Humidity;BMP_temperature;BMP_pressure;BME280_temperature;BME280_humidity;BME280_pressure;Samples;Min_cycle;Max_cycle;Signal;HPM_P1;HPM_P2
2022/02/01 00:00:23;;;;;;;8.68;3.55;;;;;;;;;;349311;152;859169;-55
2022/02/01 00:01:33;;;;;;;7.94;3.09;;;;;;;;;;346690;151;864917;-56
2022/02/01 00:02:41;;;;;;;8.08;3.26;;;;;;;;;;349101;151;857687;-55
2022/02/01 00:03:36;;;;;;;9.89;3.42;;;;;;;;;;348312;151;857433;-56
2022/02/01 00:04:50;;;;;;;6.44;3.28;;;;;;;;;;348499;151;857321;-57
2022/02/01 00:05:55;;;;;;;5.81;2.87;;;;;;;;;;349222;150;859931;-55
2022/02/01 00:07:04;;;;;;;6.65;3.33;;;;;;;;;;347664;153;857731;-55
2022/02/01 00:08:18;;;;;;;7.50;3.21;;;;;;;;;;343047;151;857681;-57
2022/02/01 00:13:10;;;;;;;6.99;3.52;;;;;;;;;;347938;152;864978;-55
2022/02/01 00:15:41;;;;;;;6.32;3.29;;;;;;;;;;342675;153;867160;-57
2022/02/01 00:33:39;;;;;;;6.88;3.28;;;;;;;;;;350933;150;865573;-56
2022/02/01 00:35:38;;;;;;;10.39;3.46;;;;;;;;;;352321;150;858139;-54
2022/02/01 00:36:38;;;;;;;8.58;3.03;;;;;;;;;;352145;150;864737;-56
2022/02/01 00:37:48;;;;;;;7.84;4.11;;;;;;;;;;350634;150;857297;-55
2022/02/01 00:38:51;;;;;;;10.54;3.42;;;;;;;;;;349732;150;857397;-56
2022/02/01 00:39:44;;;;;;;7.74;3.33;;;;;;;;;;351364;151;858841;-56
2022/02/01 00:40:54;;;;;;;9.37;3.26;;;;;;;;;;353499;151;858309;-57
2022/02/01 00:41:53;;;;;;;9.52;3.01;;;;;;;;;;352479;150;858136;-56
2022/02/01 00:42:55;;;;;;;9.33;3.28;;;;;;;;;;352863;149;859496;-56
2022/02/01 00:43:57;;;;;;;7.60;3.49;;;;;;;;;;351569;151;857149;-56
2022/02/01 00:44:58;;;;;;;10.81;3.37;;;;;;;;;;354039;150;857149;-56
2022/02/01 00:46:02;;;;;;;9.45;4.14;;;;;;;;;;354587;149;864767;-56
2022/02/01 00:47:04;;;;;;;11.96;3.96;;;;;;;;;;352933;151;864843;-58
2022/02/01 00:48:05;;;;;;;8.11;3.55;;;;;;;;;;355401;150;857237;-57
2022/02/01 00:49:07;;;;;;;11.93;3.18;;;;;;;;;;355107;149;858312;-56
2022/02/01 00:50:12;;;;;;;9.25;3.84;;;;;;;;;;352873;149;862378;-57
2022/02/01 00:51:13;;;;;;;8.32;3.32;;;;;;;;;;352436;151;857301;-56
2022/02/01 00:52:14;;;;;;;9.06;2.54;;;;;;;;;;350917;150;859033;-56
2022/02/01 00:53:21;;;;;;;8.84;3.41;;;;;;;;;;353912;150;866569;-57
2022/02/01 00:54:20;;;;;;;7.76;3.79;;;;;;;;;;352428;150;857515;-57
2022/02/01 00:55:21;;;;;;;6.29;3.33;;;;;;;;;;353436;148;856500;-57
2022/02/01 00:56:24;;;;;;;8.98;3.65;;;;;;;;;;352365;150;857319;-57
2022/02/01 00:57:26;;;;;;;12.05;3.76;;;;;;;;;;353375;149;857299;-56
2022/02/01 00:58:27;;;;;;;6.31;3.73;;;;;;;;;;353361;151;864951;-56
2022/02/01 00:59:29;;;;;;;8.71;4.10;;;;;;;;;;353284;149;865216;-56
2022/02/01 01:00:30;;;;;;;10.20;4.24;;;;;;;;;;354711;150;858559;-56
2022/02/01 01:01:33;;;;;;;9.59;3.49;;;;;;;;;;353731;151;858233;-56
2022/02/01 01:02:34;;;;;;;7.98;3.67;;;;;;;;;;354722;150;858211;-56
2022/02/01 01:03:36;;;;;;;8.61;4.01;;;;;;;;;;354520;149;860271;-54
2022/02/01 01:04:38;;;;;;;9.11;4.06;;;;;;;;;;354053;150;864845;-56
2022/02/01 01:05:39;;;;;;;11.11;4.08;;;;;;;;;;353037;151;866184;-55
2022/02/01 01:06:41;;;;;;;7.43;3.50;;;;;;;;;;354513;150;859526;-54
2022/02/01 01:07:42;;;;;;;7.05;3.78;;;;;;;;;;351055;150;859205;-55
2022/02/01 01:08:44;;;;;;;7.12;3.36;;;;;;;;;;345225;153;865694;-55
2022/02/01 01:09:46;;;;;;;7.39;3.03;;;;;;;;;;347431;152;857531;-55
2022/02/01 01:10:47;;;;;;;5.16;3.01;;;;;;;;;;352694;150;859319;-55
2022/02/01 01:11:54;;;;;;;7.44;3.32;;;;;;;;;;353981;150;857306;-53
2022/02/01 01:13:04;;;;;;;9.07;4.31;;;;;;;;;;351763;151;864702;-57
2022/02/01 01:15:15;;;;;;;8.94;3.77;;;;;;;;;;354071;149;857857;-56
2022/02/01 01:19:09;;;;;;;8.49;3.61;;;;;;;;;;354273;150;862507;-56
2022/02/01 01:44:46;;;;;;;9.71;3.95;;;;;;;;;;352420;149;858418;-55
2022/02/01 01:46:08;;;;;;;9.33;4.55;;;;;;;;;;350459;150;858208;-55
2022/02/01 01:53:35;;;;;;;8.10;3.11;;;;;;;;;;352372;149;864939;-57
2022/02/01 01:54:37;;;;;;;8.42;3.94;;;;;;;;;;351127;151;859421;-55
2022/02/01 01:55:40;;;;;;;13.66;4.71;;;;;;;;;;349096;150;866557;-56
2022/02/01 01:56:42;;;;;;;11.17;3.93;;;;;;;;;;353688;150;866807;-56
2022/02/01 01:57:43;;;;;;;9.34;4.09;;;;;;;;;;348644;151;866221;-55
2022/02/01 01:58:45;;;;;;;8.31;3.64;;;;;;;;;;348778;152;857334;-56
2022/02/01 01:59:46;;;;;;;7.32;3.55;;;;;;;;;;352254;151;867859;-55
2022/02/01 02:02:09;;;;;;;11.72;4.37;;;;;;;;;;345440;154;865683;-56
2022/02/01 02:03:11;;;;;;;8.91;4.39;;;;;;;;;;353797;150;859367;-55
2022/02/01 02:04:12;;;;;;;8.50;4.01;;;;;;;;;;354594;151;857690;-55
2022/02/01 02:05:14;;;;;;;10.82;4.17;;;;;;;;;;353074;151;857380;-56
2022/02/01 02:06:17;;;;;;;9.93;3.71;;;;;;;;;;353652;150;857319;-55
2022/02/01 02:07:19;;;;;;;7.76;3.97;;;;;;;;;;352550;151;857164;-56
2022/02/01 02:08:20;;;;;;;8.91;4.43;;;;;;;;;;351211;150;857617;-55
2022/02/01 02:09:22;;;;;;;12.35;4.99;;;;;;;;;;349780;152;864200;-55
2022/02/01 02:10:29;;;;;;;8.39;4.16;;;;;;;;;;349709;150;865015;-55
2022/02/01 02:12:18;;;;;;;10.05;3.99;;;;;;;;;;348418;152;866521;-55
2022/02/01 02:12:52;;;;;;;12.87;4.95;;;;;;;;;;338632;153;857820;-55
2022/02/01 02:14:55;;;;;;;11.04;4.27;;;;;;;;;;348810;152;857082;-56
2022/02/01 02:16:00;;;;;;;10.29;4.22;;;;;;;;;;347021;153;856483;-56
2022/02/01 02:17:02;;;;;;;10.77;4.77;;;;;;;;;;348388;151;864738;-56
2022/02/01 02:18:04;;;;;;;12.57;4.79;;;;;;;;;;345080;154;859604;-56
2022/02/01 02:19:05;;;;;;;12.35;4.84;;;;;;;;;;350431;152;858945;-56
2022/02/01 02:20:08;;;;;;;13.09;5.12;;;;;;;;;;353406;150;859141;-56
2022/02/01 02:21:10;;;;;;;11.15;4.97;;;;;;;;;;345677;152;859361;-56
2022/02/01 02:22:11;;;;;;;10.61;4.46;;;;;;;;;;352319;149;859154;-56
2022/02/01 02:23:13;;;;;;;9.03;4.71;;;;;;;;;;352591;150;865474;-56
2022/02/01 02:24:14;;;;;;;15.77;5.36;;;;;;;;;;346467;152;857942;-56
2022/02/01 02:25:16;;;;;;;11.69;5.00;;;;;;;;;;351490;152;864958;-56
2022/02/01 02:26:18;;;;;;;12.91;5.27;;;;;;;;;;349500;152;865043;-57
2022/02/01 02:27:20;;;;;;;8.71;4.14;;;;;;;;;;350684;151;863820;-56
2022/02/01 02:28:22;;;;;;;11.64;4.29;;;;;;;;;;351455;150;862606;-56
2022/02/01 02:29:23;;;;;;;14.49;4.81;;;;;;;;;;351149;151;866664;-56
2022/02/01 02:30:25;;;;;;;11.18;4.56;;;;;;;;;;349978;151;857383;-56
2022/02/01 02:31:27;;;;;;;12.09;4.18;;;;;;;;;;351174;151;865498;-56
2022/02/01 02:32:28;;;;;;;10.59;4.76;;;;;;;;;;352091;150;859033;-56
2022/02/01 02:33:31;;;;;;;13.06;4.69;;;;;;;;;;350876;151;865208;-56
2022/02/01 02:34:33;;;;;;;14.51;4.94;;;;;;;;;;350453;151;857213;-56
2022/02/01 02:35:39;;;;;;;8.66;4.44;;;;;;;;;;350828;150;859298;-56
2022/02/01 02:36:44;;;;;;;7.44;3.01;;;;;;;;;;350350;152;857208;-57
2022/02/01 02:37:42;;;;;;;11.62;4.64;;;;;;;;;;349222;151;865131;-56
2022/02/01 02:39:02;;;;;;;14.75;4.99;;;;;;;;;;350455;150;857344;-56
2022/02/01 02:40:30;;;;;;;6.08;2.67;;;;;;;;;;351078;149;866273;-57
2022/02/01 02:41:30;;;;;;;11.03;4.39;;;;;;;;;;349937;151;859402;-56
2022/02/01 02:42:34;;;;;;;14.98;5.02;;;;;;;;;;349377;150;857271;-55
2022/02/01 02:45:05;;;;;;;10.00;4.24;;;;;;;;;;350595;151;865027;-56
2022/02/01 02:46:07;;;;;;;12.47;3.98;;;;;;;;;;350076;150;864989;-56
2022/02/01 02:47:08;;;;;;;8.99;3.94;;;;;;;;;;352810;151;857248;-56
2022/02/01 02:48:12;;;;;;;13.19;5.02;;;;;;;;;;351599;151;865267;-56
2022/02/01 02:49:15;;;;;;;10.74;4.49;;;;;;;;;;351306;150;860167;-56
2022/02/01 02:50:17;;;;;;;11.98;4.39;;;;;;;;;;352129;150;859060;-56
2022/02/01 02:51:18;;;;;;;11.44;4.44;;;;;;;;;;350708;150;857271;-54
2022/02/01 02:52:20;;;;;;;12.47;4.93;;;;;;;;;;350273;150;859000;-55
2022/02/01 02:53:21;;;;;;;11.38;4.29;;;;;;;;;;351879;150;857395;-55
2022/02/01 02:54:24;;;;;;;10.01;4.15;;;;;;;;;;350306;151;865660;-55
2022/02/01 02:55:26;;;;;;;11.59;4.04;;;;;;;;;;350734;151;859249;-55
2022/02/01 02:56:28;;;;;;;11.56;4.58;;;;;;;;;;349574;150;859178;-55
2022/02/01 02:57:30;;;;;;;10.26;4.31;;;;;;;;;;351125;150;859976;-55
2022/02/01 02:58:31;;;;;;;9.19;5.19;;;;;;;;;;350194;151;865421;-55
2022/02/01 02:59:33;;;;;;;8.10;4.26;;;;;;;;;;350126;151;864840;-56
2022/02/01 03:00:35;;;;;;;9.31;3.92;;;;;;;;;;350695;150;864740;-55
2022/02/01 03:01:36;;;;;;;12.05;4.07;;;;;;;;;;351269;151;857337;-55
2022/02/01 03:02:38;;;;;;;8.22;4.18;;;;;;;;;;352139;151;857213;-56
2022/02/01 03:03:39;;;;;;;12.24;4.60;;;;;;;;;;351898;151;865806;-55
2022/02/01 03:04:41;;;;;;;11.11;4.12;;;;;;;;;;352012;150;859531;-55
2022/02/01 03:05:43;;;;;;;10.28;4.07;;;;;;;;;;351248;151;865036;-56
2022/02/01 03:06:44;;;;;;;8.75;4.25;;;;;;;;;;349841;151;866526;-55
2022/02/01 03:07:46;;;;;;;7.46;4.37;;;;;;;;;;351716;150;857483;-56
2022/02/01 03:08:48;;;;;;;10.21;4.14;;;;;;;;;;351674;151;863879;-55
2022/02/01 03:09:49;;;;;;;10.31;4.24;;;;;;;;;;351545;151;859470;-55
2022/02/01 03:10:51;;;;;;;6.46;2.91;;;;;;;;;;350639;150;857308;-56
2022/02/01 03:11:53;;;;;;;10.89;3.91;;;;;;;;;;351225;151;864813;-55
2022/02/01 03:13:10;;;;;;;10.80;4.43;;;;;;;;;;351525;151;857264;-56
2022/02/01 03:14:04;;;;;;;9.70;4.52;;;;;;;;;;348512;152;865365;-56
2022/02/01 03:15:34;;;;;;;12.04;4.27;;;;;;;;;;353053;150;859337;-56
2022/02/01 03:16:32;;;;;;;11.98;4.12;;;;;;;;;;349963;151;857235;-55
2022/02/01 03:19:46;;;;;;;10.48;4.69;;;;;;;;;;342145;154;859984;-56
2022/02/01 03:19:52;;;;;;;9.17;4.47;;;;;;;;;;351236;150;857789;-55
2022/02/01 03:20:54;;;;;;;11.91;4.12;;;;;;;;;;350251;151;857717;-55
2022/02/01 03:21:55;;;;;;;15.22;5.04;;;;;;;;;;349543;150;859724;-55
2022/02/01 03:22:57;;;;;;;10.39;4.95;;;;;;;;;;350197;152;865414;-56
2022/02/01 03:23:58;;;;;;;13.97;5.23;;;;;;;;;;349783;150;857476;-55
2022/02/01 03:25:00;;;;;;;10.70;4.29;;;;;;;;;;350084;152;859375;-56
2022/02/01 03:26:02;;;;;;;13.85;4.95;;;;;;;;;;346286;152;857471;-55
2022/02/01 03:27:04;;;;;;;13.34;4.83;;;;;;;;;;344651;153;857282;-55
2022/02/01 03:28:06;;;;;;;13.16;5.22;;;;;;;;;;343601;155;865116;-55
2022/02/01 03:29:08;;;;;;;9.91;4.83;;;;;;;;;;346778;152;858856;-56
2022/02/01 03:30:10;;;;;;;9.16;4.31;;;;;;;;;;345218;154;861064;-56
2022/02/01 03:31:11;;;;;;;12.87;4.10;;;;;;;;;;345442;155;857185;-56
2022/02/01 03:32:13;;;;;;;10.40;3.99;;;;;;;;;;346079;153;857322;-56
2022/02/01 03:33:15;;;;;;;10.73;4.46;;;;;;;;;;353101;149;861715;-55
2022/02/01 03:34:16;;;;;;;12.75;4.16;;;;;;;;;;352809;151;865033;-56
2022/02/01 03:35:18;;;;;;;8.87;4.21;;;;;;;;;;351055;151;857202;-56
2022/02/01 03:36:20;;;;;;;10.19;4.05;;;;;;;;;;351479;149;864820;-55
2022/02/01 03:37:22;;;;;;;13.94;4.40;;;;;;;;;;351343;151;863957;-55
2022/02/01 03:38:23;;;;;;;10.61;3.83;;;;;;;;;;349843;151;857289;-56
2022/02/01 03:39:25;;;;;;;10.07;4.06;;;;;;;;;;350337;149;866792;-57
2022/02/01 03:40:28;;;;;;;12.54;4.49;;;;;;;;;;351732;151;857331;-57
2022/02/01 03:41:30;;;;;;;8.20;3.57;;;;;;;;;;348557;150;857290;-57
2022/02/01 03:42:31;;;;;;;8.72;4.32;;;;;;;;;;344135;155;861020;-56
2022/02/01 03:43:33;;;;;;;8.99;4.17;;;;;;;;;;345143;152;859358;-57
2022/02/01 03:44:35;;;;;;;11.14;4.18;;;;;;;;;;344740;152;858912;-57
2022/02/01 03:45:36;;;;;;;9.40;4.16;;;;;;;;;;350040;153;858319;-57
2022/02/01 03:46:41;;;;;;;10.52;4.38;;;;;;;;;;350174;150;865250;-59
2022/02/01 03:47:42;;;;;;;8.84;3.66;;;;;;;;;;350454;150;865138;-57
2022/02/01 03:48:43;;;;;;;11.23;4.15;;;;;;;;;;345513;152;858189;-56
2022/02/01 03:49:45;;;;;;;11.04;4.11;;;;;;;;;;347359;152;865222;-57
2022/02/01 03:50:46;;;;;;;10.95;3.90;;;;;;;;;;346392;152;859149;-55
2022/02/01 03:51:48;;;;;;;10.31;4.36;;;;;;;;;;350698;150;857648;-56
2022/02/01 03:52:49;;;;;;;9.06;3.86;;;;;;;;;;351489;149;860277;-56
2022/02/01 03:53:51;;;;;;;11.56;4.24;;;;;;;;;;347513;152;857505;-56
2022/02/01 03:54:52;;;;;;;10.64;4.30;;;;;;;;;;350304;152;860327;-59
2022/02/01 03:55:54;;;;;;;14.20;4.69;;;;;;;;;;348471;152;857295;-55
2022/02/01 03:56:56;;;;;;;11.03;4.39;;;;;;;;;;350509;152;858906;-56
2022/02/01 03:57:57;;;;;;;11.84;4.71;;;;;;;;;;349909;150;859074;-57
2022/02/01 03:58:59;;;;;;;8.48;3.97;;;;;;;;;;349043;152;857925;-56
2022/02/01 04:00:00;;;;;;;11.74;3.90;;;;;;;;;;349243;149;859152;-56
2022/02/01 04:01:02;;;;;;;9.43;3.96;;;;;;;;;;350415;149;857249;-56
2022/02/01 04:02:03;;;;;;;8.31;4.03;;;;;;;;;;351041;149;861837;-55
2022/02/01 04:03:05;;;;;;;10.65;3.80;;;;;;;;;;350419;152;865356;-54
2022/02/01 04:04:07;;;;;;;9.62;4.00;;;;;;;;;;349512;152;858624;-55
2022/02/01 04:05:09;;;;;;;8.15;4.25;;;;;;;;;;350314;149;857257;-55
2022/02/01 04:06:10;;;;;;;14.28;4.66;;;;;;;;;;351998;149;864927;-55
2022/02/01 04:07:12;;;;;;;9.44;4.27;;;;;;;;;;350399;149;865055;-55
2022/02/01 04:08:16;;;;;;;12.97;4.38;;;;;;;;;;350790;152;857382;-55
2022/02/01 04:09:17;;;;;;;9.26;4.29;;;;;;;;;;350086;152;857202;-57
2022/02/01 04:10:20;;;;;;;9.09;4.02;;;;;;;;;;349600;152;857289;-55
2022/02/01 04:11:22;;;;;;;10.51;4.38;;;;;;;;;;348198;152;865409;-56
2022/02/01 04:12:24;;;;;;;9.39;4.19;;;;;;;;;;349703;149;865043;-54
2022/02/01 04:13:26;;;;;;;10.57;4.64;;;;;;;;;;349612;152;863203;-55
2022/02/01 04:14:30;;;;;;;11.49;4.28;;;;;;;;;;350895;150;864955;-54
2022/02/01 04:15:32;;;;;;;9.23;4.16;;;;;;;;;;349764;152;863247;-57
2022/02/01 04:16:33;;;;;;;10.73;4.14;;;;;;;;;;349750;152;867113;-54
2022/02/01 04:17:37;;;;;;;6.38;3.50;;;;;;;;;;342821;153;858852;-54
2022/02/01 04:18:39;;;;;;;8.35;4.05;;;;;;;;;;350631;150;864803;-56
2022/02/01 04:19:41;;;;;;;5.59;2.79;;;;;;;;;;350343;149;859620;-55
2022/02/01 04:20:43;;;;;;;8.55;4.22;;;;;;;;;;349846;152;867161;-55
2022/02/01 04:22:46;;;;;;;10.86;4.05;;;;;;;;;;340969;156;859139;-54
2022/02/01 04:22:57;;;;;;;13.30;4.58;;;;;;;;;;330761;153;865134;-55
2022/02/01 04:23:59;;;;;;;10.96;4.31;;;;;;;;;;345750;153;856367;-55
2022/02/01 04:25:00;;;;;;;11.04;4.15;;;;;;;;;;348019;152;866284;-54
2022/02/01 04:26:02;;;;;;;9.49;4.11;;;;;;;;;;343137;155;859152;-54
2022/02/01 04:27:04;;;;;;;7.95;4.06;;;;;;;;;;348333;150;859377;-54
2022/02/01 04:28:06;;;;;;;11.66;4.02;;;;;;;;;;351207;152;857480;-54
2022/02/01 04:29:07;;;;;;;8.93;3.89;;;;;;;;;;343205;153;857291;-55
2022/02/01 04:30:10;;;;;;;7.47;3.45;;;;;;;;;;346812;152;864815;-56
2022/02/01 04:31:12;;;;;;;7.59;3.59;;;;;;;;;;349936;152;857874;-56
2022/02/01 04:32:13;;;;;;;11.55;4.44;;;;;;;;;;350235;153;860137;-57
2022/02/01 04:33:15;;;;;;;9.88;4.11;;;;;;;;;;350378;153;865035;-56
2022/02/01 04:34:16;;;;;;;10.46;3.57;;;;;;;;;;348510;153;857247;-56
2022/02/01 04:35:20;;;;;;;11.56;4.86;;;;;;;;;;348208;152;857324;-56
2022/02/01 04:36:22;;;;;;;12.52;4.42;;;;;;;;;;349164;153;866847;-56
2022/02/01 04:37:23;;;;;;;10.71;4.79;;;;;;;;;;350221;150;859299;-56
2022/02/01 04:38:25;;;;;;;15.39;5.99;;;;;;;;;;348881;151;865141;-57
2022/02/01 04:39:26;;;;;;;12.24;4.29;;;;;;;;;;349375;150;865066;-56
2022/02/01 04:40:28;;;;;;;13.18;4.70;;;;;;;;;;350024;150;857642;-56
2022/02/01 04:41:31;;;;;;;12.60;5.04;;;;;;;;;;348511;150;866761;-56
2022/02/01 04:42:36;;;;;;;9.65;4.03;;;;;;;;;;350367;151;857316;-56
2022/02/01 04:43:37;;;;;;;13.71;5.33;;;;;;;;;;350624;150;856804;-56
2022/02/01 04:44:38;;;;;;;14.10;5.39;;;;;;;;;;350868;150;857197;-55
2022/02/01 04:45:41;;;;;;;18.62;5.36;;;;;;;;;;350366;150;857403;-57
2022/02/01 04:46:43;;;;;;;14.97;5.42;;;;;;;;;;348794;152;861975;-56
2022/02/01 04:47:45;;;;;;;13.50;4.56;;;;;;;;;;349915;151;857610;-56
2022/02/01 04:48:47;;;;;;;16.19;6.04;;;;;;;;;;349800;152;865435;-57
2022/02/01 04:49:49;;;;;;;12.95;4.72;;;;;;;;;;352124;150;866758;-56
2022/02/01 04:50:51;;;;;;;10.70;4.73;;;;;;;;;;350602;151;857165;-56
2022/02/01 04:51:52;;;;;;;14.14;5.02;;;;;;;;;;349694;151;866032;-56
2022/02/01 04:52:55;;;;;;;12.71;3.64;;;;;;;;;;349708;150;865248;-56
2022/02/01 04:53:57;;;;;;;10.18;4.27;;;;;;;;;;352368;150;857078;-56
2022/02/01 04:54:59;;;;;;;10.31;4.91;;;;;;;;;;349015;150;857252;-54
2022/02/01 04:56:00;;;;;;;14.31;4.94;;;;;;;;;;350260;150;857233;-57
2022/02/01 04:57:02;;;;;;;12.10;4.85;;;;;;;;;;349829;151;857408;-56
2022/02/01 04:58:04;;;;;;;8.84;4.31;;;;;;;;;;350436;150;860174;-56
2022/02/01 04:59:06;;;;;;;11.44;4.37;;;;;;;;;;347820;150;859259;-55
2022/02/01 05:00:08;;;;;;;14.13;4.68;;;;;;;;;;349017;151;864996;-57
2022/02/01 05:01:12;;;;;;;10.29;4.63;;;;;;;;;;354069;149;857222;-55
2022/02/01 05:02:14;;;;;;;12.61;4.72;;;;;;;;;;353043;149;858164;-56
2022/02/01 05:03:15;;;;;;;11.97;4.62;;;;;;;;;;350864;152;860654;-56
2022/02/01 05:04:21;;;;;;;9.43;4.39;;;;;;;;;;351380;150;865422;-56
2022/02/01 05:05:28;;;;;;;14.66;4.95;;;;;;;;;;346370;152;857446;-55
2022/02/01 05:06:28;;;;;;;11.09;4.70;;;;;;;;;;345128;151;859678;-56
2022/02/01 05:07:28;;;;;;;13.76;4.46;;;;;;;;;;346283;151;858850;-56
2022/02/01 05:08:29;;;;;;;11.32;4.59;;;;;;;;;;352591;150;864951;-56
2022/02/01 05:09:32;;;;;;;12.94;4.44;;;;;;;;;;349788;152;865448;-54
2022/02/01 05:10:34;;;;;;;13.67;4.95;;;;;;;;;;353320;150;857304;-54
2022/02/01 05:11:36;;;;;;;16.77;4.18;;;;;;;;;;345736;152;858909;-55
2022/02/01 05:12:38;;;;;;;12.36;5.39;;;;;;;;;;353200;150;857249;-55
2022/02/01 05:14:41;;;;;;;10.01;4.57;;;;;;;;;;353796;149;857352;-55
2022/02/01 05:15:42;;;;;;;11.56;5.21;;;;;;;;;;353300;149;865051;-56
2022/02/01 05:17:56;;;;;;;11.06;4.15;;;;;;;;;;352370;150;866269;-56
2022/02/01 05:19:04;;;;;;;13.34;5.46;;;;;;;;;;351715;149;866049;-57
2022/02/01 05:20:17;;;;;;;12.70;5.08;;;;;;;;;;345871;152;857635;-56
2022/02/01 05:21:20;;;;;;;14.32;4.64;;;;;;;;;;351865;150;857131;-56
2022/02/01 05:22:17;;;;;;;10.60;5.36;;;;;;;;;;352135;150;865069;-55
2022/02/01 05:23:17;;;;;;;13.36;5.23;;;;;;;;;;354467;149;857364;-55
2022/02/01 05:24:20;;;;;;;7.92;4.25;;;;;;;;;;352922;150;864944;-56
2022/02/01 05:25:28;;;;;;;10.93;5.37;;;;;;;;;;351057;151;857220;-56
2022/02/01 05:26:27;;;;;;;13.74;5.31;;;;;;;;;;349922;151;858327;-56
2022/02/01 05:27:29;;;;;;;16.48;4.11;;;;;;;;;;350280;152;857553;-56
2022/02/01 05:28:31;;;;;;;15.13;4.57;;;;;;;;;;349754;152;857830;-55
2022/02/01 05:29:32;;;;;;;9.74;4.85;;;;;;;;;;350698;151;859232;-56
2022/02/01 05:30:35;;;;;;;14.64;4.61;;;;;;;;;;348854;150;859401;-57
2022/02/01 05:31:36;;;;;;;10.93;4.13;;;;;;;;;;347296;152;865040;-57
2022/02/01 05:32:38;;;;;;;8.58;3.80;;;;;;;;;;349494;150;858583;-57
2022/02/01 05:33:39;;;;;;;14.36;5.48;;;;;;;;;;351209;152;865190;-57
2022/02/01 05:34:41;;;;;;;17.72;6.27;;;;;;;;;;348134;150;865049;-57
2022/02/01 05:35:42;;;;;;;10.52;4.88;;;;;;;;;;350269;150;857419;-57
2022/02/01 05:36:44;;;;;;;14.54;5.49;;;;;;;;;;350814;151;857482;-56
2022/02/01 05:37:46;;;;;;;11.58;5.39;;;;;;;;;;349097;150;865002;-56
2022/02/01 05:38:50;;;;;;;14.04;4.83;;;;;;;;;;349567;151;865083;-55
2022/02/01 05:39:51;;;;;;;11.36;5.94;;;;;;;;;;350004;151;864790;-56
2022/02/01 05:40:52;;;;;;;12.78;5.61;;;;;;;;;;350596;151;857565;-56
2022/02/01 05:41:56;;;;;;;13.20;5.75;;;;;;;;;;350198;151;864041;-56
2022/02/01 05:43:04;;;;;;;10.18;4.24;;;;;;;;;;350721;150;856605;-56
2022/02/01 05:44:04;;;;;;;14.46;4.85;;;;;;;;;;352044;150;857139;-55
2022/02/01 05:45:06;;;;;;;13.29;5.60;;;;;;;;;;353375;151;857947;-56
2022/02/01 05:46:08;;;;;;;11.26;5.22;;;;;;;;;;352112;150;858815;-56
2022/02/01 05:47:09;;;;;;;14.96;5.24;;;;;;;;;;352246;150;858853;-56
2022/02/01 05:48:11;;;;;;;16.72;5.21;;;;;;;;;;354440;149;864968;-56
2022/02/01 05:49:12;;;;;;;10.54;5.51;;;;;;;;;;352708;151;857497;-56
2022/02/01 05:50:14;;;;;;;17.72;6.53;;;;;;;;;;353854;151;865023;-56
2022/02/01 05:51:16;;;;;;;14.02;5.59;;;;;;;;;;351744;151;857266;-55
2022/02/01 05:52:18;;;;;;;12.04;5.43;;;;;;;;;;353251;150;857378;-56
2022/02/01 05:53:19;;;;;;;11.20;5.11;;;;;;;;;;350027;151;860814;-57
2022/02/01 05:54:24;;;;;;;17.84;6.56;;;;;;;;;;352453;151;866698;-56
2022/02/01 05:55:24;;;;;;;19.69;6.74;;;;;;;;;;352359;150;856470;-56
2022/02/01 05:56:26;;;;;;;11.29;5.49;;;;;;;;;;352014;151;865040;-57
2022/02/01 05:57:28;;;;;;;18.11;5.96;;;;;;;;;;350069;151;859309;-56
2022/02/01 05:58:30;;;;;;;14.59;6.17;;;;;;;;;;354568;150;858819;-56
2022/02/01 05:59:31;;;;;;;14.61;5.67;;;;;;;;;;353663;151;864945;-55
2022/02/01 06:00:33;;;;;;;13.99;5.82;;;;;;;;;;353259;151;857288;-55
2022/02/01 06:01:35;;;;;;;18.38;6.95;;;;;;;;;;352948;150;859933;-56
2022/02/01 06:02:36;;;;;;;15.59;6.66;;;;;;;;;;352399;150;857249;-55
2022/02/01 06:03:38;;;;;;;21.13;6.62;;;;;;;;;;352064;151;857414;-56
2022/02/01 06:04:39;;;;;;;14.44;4.95;;;;;;;;;;351621;151;857444;-55
2022/02/01 06:05:41;;;;;;;16.44;6.51;;;;;;;;;;352099;150;866829;-56
2022/02/01 06:06:43;;;;;;;16.96;6.73;;;;;;;;;;352778;150;857425;-55
2022/02/01 06:07:45;;;;;;;14.07;6.13;;;;;;;;;;351958;151;857866;-55
2022/02/01 06:08:47;;;;;;;12.60;5.51;;;;;;;;;;351869;151;857380;-55
2022/02/01 06:09:48;;;;;;;21.71;7.42;;;;;;;;;;351753;150;857815;-56
2022/02/01 06:10:50;;;;;;;19.62;7.30;;;;;;;;;;351817;151;864951;-57
2022/02/01 06:11:52;;;;;;;16.20;6.75;;;;;;;;;;352201;150;864954;-55
2022/02/01 06:12:53;;;;;;;18.12;7.51;;;;;;;;;;351925;150;857507;-55
2022/02/01 06:13:55;;;;;;;17.44;5.65;;;;;;;;;;352602;151;859896;-55
2022/02/01 06:14:57;;;;;;;14.39;5.46;;;;;;;;;;352711;150;866626;-54
2022/02/01 06:15:58;;;;;;;14.52;6.19;;;;;;;;;;352969;150;867043;-55
2022/02/01 06:17:00;;;;;;;16.65;5.71;;;;;;;;;;352546;150;859151;-55
2022/02/01 06:18:01;;;;;;;14.84;6.17;;;;;;;;;;351770;151;857320;-54
2022/02/01 06:19:03;;;;;;;14.37;5.90;;;;;;;;;;352217;151;864125;-55
2022/02/01 06:20:05;;;;;;;15.60;6.15;;;;;;;;;;351518;150;857406;-55
2022/02/01 06:21:07;;;;;;;17.88;6.59;;;;;;;;;;351205;151;857289;-55
2022/02/01 06:22:08;;;;;;;14.89;6.33;;;;;;;;;;351745;151;859536;-56
2022/02/01 06:23:10;;;;;;;16.03;6.01;;;;;;;;;;354023;150;865039;-56
2022/02/01 06:24:17;;;;;;;13.33;6.18;;;;;;;;;;353559;150;856686;-55
2022/02/01 06:25:21;;;;;;;15.81;6.26;;;;;;;;;;350719;150;856260;-55
2022/02/01 06:26:22;;;;;;;15.96;6.49;;;;;;;;;;350814;150;859109;-55
2022/02/01 06:27:23;;;;;;;17.59;6.04;;;;;;;;;;353178;150;856592;-56
2022/02/01 06:28:25;;;;;;;13.98;6.23;;;;;;;;;;351678;150;856278;-55
2022/02/01 06:29:27;;;;;;;18.08;6.83;;;;;;;;;;351709;151;864896;-55
2022/02/01 06:30:29;;;;;;;15.41;6.02;;;;;;;;;;351465;151;857081;-55
2022/02/01 06:31:30;;;;;;;16.81;6.45;;;;;;;;;;353762;151;857268;-55
2022/02/01 06:32:34;;;;;;;17.31;6.82;;;;;;;;;;352489;151;860130;-55
2022/02/01 06:33:35;;;;;;;18.64;6.37;;;;;;;;;;348606;151;866700;-55
2022/02/01 06:34:37;;;;;;;12.13;5.26;;;;;;;;;;353788;150;859300;-56
2022/02/01 06:35:39;;;;;;;15.74;6.07;;;;;;;;;;355236;150;865005;-56
2022/02/01 06:36:40;;;;;;;17.74;6.93;;;;;;;;;;352273;151;857564;-55
2022/02/01 06:37:42;;;;;;;14.62;6.18;;;;;;;;;;352868;151;857378;-55
2022/02/01 06:38:44;;;;;;;11.19;5.43;;;;;;;;;;354404;150;865054;-55
2022/02/01 06:39:45;;;;;;;20.12;7.60;;;;;;;;;;351032;151;865027;-55
2022/02/01 06:40:47;;;;;;;20.68;6.68;;;;;;;;;;349410;151;857426;-54
2022/02/01 06:41:49;;;;;;;17.74;6.85;;;;;;;;;;354303;150;865006;-55
2022/02/01 06:42:51;;;;;;;11.39;5.59;;;;;;;;;;353821;150;857306;-55
2022/02/01 06:43:52;;;;;;;15.63;7.04;;;;;;;;;;361607;147;866603;-55
2022/02/01 06:44:54;;;;;;;18.95;6.63;;;;;;;;;;361587;146;859087;-55
2022/02/01 06:45:57;;;;;;;22.91;7.26;;;;;;;;;;362030;146;860691;-55
2022/02/01 06:46:59;;;;;;;14.19;6.19;;;;;;;;;;362523;146;858071;-56
2022/02/01 06:48:01;;;;;;;14.76;6.54;;;;;;;;;;361335;146;857227;-55
2022/02/01 06:49:05;;;;;;;18.47;7.71;;;;;;;;;;363175;146;863922;-55
2022/02/01 06:50:07;;;;;;;14.30;6.84;;;;;;;;;;361605;146;856497;-54
2022/02/01 06:51:09;;;;;;;16.53;6.43;;;;;;;;;;360489;147;856636;-55
2022/02/01 06:52:11;;;;;;;15.71;6.43;;;;;;;;;;362055;146;856242;-55
2022/02/01 06:53:12;;;;;;;13.49;6.33;;;;;;;;;;365260;146;856078;-55
2022/02/01 06:54:14;;;;;;;15.16;6.51;;;;;;;;;;364437;146;862152;-56
2022/02/01 06:55:21;;;;;;;17.49;6.74;;;;;;;;;;365342;147;856644;-55
2022/02/01 06:56:28;;;;;;;14.86;6.02;;;;;;;;;;361822;147;863733;-56
2022/02/01 06:57:23;;;;;;;16.89;6.71;;;;;;;;;;361360;146;856198;-56
2022/02/01 06:58:24;;;;;;;19.56;7.08;;;;;;;;;;361327;147;856013;-56
2022/02/01 06:59:26;;;;;;;14.16;6.23;;;;;;;;;;363726;147;863732;-56
2022/02/01 07:00:28;;;;;;;17.96;7.04;;;;;;;;;;363230;146;857059;-56
2022/02/01 07:01:29;;;;;;;17.48;6.74;;;;;;;;;;364161;146;863801;-56
2022/02/01 07:02:31;;;;;;;16.06;6.41;;;;;;;;;;362752;145;863955;-56
2022/02/01 07:03:33;;;;;;;20.48;6.13;;;;;;;;;;362742;147;856063;-56
2022/02/01 07:04:35;;;;;;;15.17;5.95;;;;;;;;;;363976;147;856149;-56
2022/02/01 07:05:36;;;;;;;18.51;6.72;;;;;;;;;;364025;147;857518;-56
2022/02/01 07:06:38;;;;;;;16.14;5.46;;;;;;;;;;364383;147;858010;-56
2022/02/01 07:07:39;;;;;;;17.58;6.94;;;;;;;;;;364639;147;857529;-56
2022/02/01 07:08:43;;;;;;;15.72;6.43;;;;;;;;;;362399;146;864048;-56
2022/02/01 07:09:45;;;;;;;18.67;6.59;;;;;;;;;;361150;147;856648;-56
2022/02/01 07:10:46;;;;;;;14.46;6.79;;;;;;;;;;360562;147;863948;-56